Flight Track Log - Related Links

Times and Time Zones

All times are in EDT time to prevent confusion due to time zone crossing. See the SLI231 flight status page for this flight to view local times or setup timezone preferences in your user account.

Time Position Orientation Groundspeed Altitude Reporting Facility
EDT Latitude Longitude Course Direction KTS MPH feet Rate Location/Type
Mon 04:04:00 PM 25.3345 -103.2360 146° Southeast  Level Estimated
Mon 04:05:00 PM 25.2566 -103.1780 146° Southeast  Level Estimated
Mon 04:06:00 PM 25.1786 -103.1200 146° Southeast  Level Estimated
Mon 04:07:00 PM 25.1006 -103.0622 146° Southeast  Level Estimated
Mon 04:08:00 PM 25.0225 -103.0043 146° Southeast  Level Estimated
Mon 04:09:00 PM 24.9445 -102.9466 146° Southeast  Level Estimated
Mon 04:10:00 PM 24.8664 -102.8889 146° Southeast  Level Estimated
Mon 04:11:00 PM 24.7883 -102.8314 146° Southeast  Level Estimated
Mon 04:12:00 PM 24.7102 -102.7738 146° Southeast  Level Estimated
Mon 04:13:00 PM 24.6320 -102.7164 146° Southeast  Level Estimated
Mon 04:14:00 PM 24.5539 -102.6590 146° Southeast  Level Estimated
Mon 04:15:00 PM 24.4757 -102.6017 146° Southeast  Level Estimated
Mon 04:16:00 PM 24.3975 -102.5445 146° Southeast  Level Estimated
Mon 04:17:00 PM 24.3193 -102.4873 146° Southeast  Level Estimated
Mon 04:18:00 PM 24.2410 -102.4302 146° Southeast  Level Estimated
Mon 04:19:00 PM 24.1627 -102.3732 146° Southeast  Level Estimated
Mon 04:20:00 PM 24.0844 -102.3163 146° Southeast  Level Estimated
Mon 04:21:00 PM 24.0061 -102.2594 146° Southeast  Level Estimated
Mon 04:22:00 PM 23.9278 -102.2026 146° Southeast  Level Estimated
Mon 04:23:00 PM 23.8494 -102.1458 146° Southeast  Level Estimated
Mon 04:24:00 PM 23.7711 -102.0892 147° Southeast  Level Estimated
Mon 04:25:00 PM 23.6927 -102.0326 147° Southeast  Level Estimated
Mon 04:26:00 PM 23.6143 -101.9760 147° Southeast  Level Estimated
Mon 04:27:00 PM 23.5358 -101.9195 147° Southeast  Level Estimated
Mon 04:28:00 PM 23.4573 -101.8632 147° Southeast  Level Estimated
Mon 04:29:00 PM 23.3789 -101.8068 147° Southeast  Level Estimated
Mon 04:30:00 PM 23.3004 -101.7505 147° Southeast  Level Estimated
Mon 04:31:00 PM 23.2218 -101.6943 147° Southeast  Level Estimated
Mon 04:32:00 PM 23.1433 -101.6382 147° Southeast  Level Estimated
Mon 04:33:00 PM 23.0648 -101.5821 147° Southeast  Level Estimated
Mon 04:34:00 PM 22.9862 -101.5261 147° Southeast  Level Estimated
Mon 04:35:00 PM 22.9076 -101.4702 147° Southeast  Level Estimated
Mon 04:36:00 PM 22.8290 -101.4143 147° Southeast  Level Estimated
Mon 04:37:00 PM 22.7503 -101.3585 147° Southeast  Level Estimated
Mon 04:38:00 PM 22.6716 -101.3027 147° Southeast  Level Estimated
Mon 04:39:00 PM 22.5930 -101.2471 147° Southeast  Level Estimated
Mon 04:40:00 PM 22.5143 -101.1914 147° Southeast  Level Estimated
Mon 04:41:00 PM 22.4356 -101.1359 147° Southeast  Level Estimated
Mon 04:42:00 PM 22.3568 -101.0804 147° Southeast  Level Estimated
Mon 04:43:00 PM 22.2781 -101.0250 147° Southeast  Level Estimated
Mon 04:44:00 PM 22.1993 -100.9696 147° Southeast  Level Estimated
Mon 04:45:00 PM 22.1205 -100.9143 147° Southeast  Level Estimated
Mon 04:46:00 PM 22.0417 -100.8590 147° Southeast  Level Estimated
Mon 04:47:00 PM 21.9629 -100.8038 147° Southeast  Level Estimated
Mon 04:48:00 PM 21.8841 -100.7487 147° Southeast  Level Estimated
Mon 04:49:00 PM 21.8052 -100.6937 147° Southeast  Level Estimated
Mon 04:50:00 PM 21.7263 -100.6387 147° Southeast  Level Estimated
Mon 04:51:00 PM 21.6474 -100.5837 147° Southeast  Level Estimated
Mon 04:52:00 PM 21.5685 -100.5288 147° Southeast  Level Estimated
Mon 04:53:00 PM 21.4896 -100.4740 147° Southeast  Level Estimated
Mon 04:54:00 PM 21.4106 -100.4193 147° Southeast  Level Estimated
Mon 04:55:00 PM 21.3316 -100.3646 147° Southeast  Level Estimated
Mon 04:56:00 PM 21.2527 -100.3099 147° Southeast  Level Estimated
Mon 04:57:00 PM 21.1737 -100.2553 147° Southeast  Level Estimated
Mon 04:58:00 PM 21.0946 -100.2008 147° Southeast  Level Estimated
Mon 04:59:00 PM 21.0156 -100.1463 147° Southeast  Level Estimated
Mon 05:00:00 PM 20.9365 -100.0919 147° Southeast  Level Estimated
Mon 05:01:00 PM 20.8575 -100.0376 147° Southeast  Level Estimated
Mon 05:02:00 PM 20.7784 -99.9833 147° Southeast  Level Estimated
Mon 05:03:00 PM 20.6993 -99.9290 147° Southeast  Level Estimated
Mon 05:04:00 PM 20.6201 -99.8749 147° Southeast  Level Estimated
Mon 05:05:00 PM 20.5410 -99.8207 147° Southeast  Level Estimated
Mon 05:06:00 PM 20.4618 -99.7667 147° Southeast  Level Estimated
Mon 05:07:00 PM 20.3827 -99.7126 147° Southeast  Level Estimated
Mon 05:08:00 PM 20.3035 -99.6587 147° Southeast  Level Estimated
Mon 05:09:00 PM 20.2243 -99.6048 147° Southeast  Level Estimated
Mon 05:10:00 PM 20.1450 -99.5509 147° Southeast  Level Estimated
Mon 05:11:00 PM 20.0658 -99.4971 147° Southeast  Level Estimated
Mon 05:12:00 PM 19.9865 -99.4434 147° Southeast  Level Estimated
Mon 05:13:00 PM 19.9072 -99.3897 148° Southeast  Level Estimated
Mon 05:14:00 PM 19.8280 -99.3361 148° Southeast  Level Estimated
Mon 05:15:00 PM 19.7486 -99.2825 148° Southeast  Level Estimated
Mon 05:16:00 PM 19.6693 -99.2290 148° Southeast  Level Estimated
Mon 05:17:00 PM 19.5900 -99.1755 148° Southeast  Level Estimated
Mon 05:18:00 PM 19.5106 -99.1221 148° Southeast  Level Estimated
Mon 05:19:00 PM 19.4363 -99.0721 148° Southeast  Level Estimated
Mon 05:20:00 PM 19.4363 -99.0721 43° Northeast  Level Estimated

Login

Don't have an account? Register now (free) for customized features, flight alerts, and more!